Haines, Alaska
Current Conditions -  °F | °C
As of 5:54 PM on Friday 19 Dec 2014 (Local Time) from PAHN Reporting Station
Overcast Overcast  
Wind Chill: 22°   Ceiling: 8000
Heat Index: 31°   Visibility: 10mi
Dew Point: 24°   Wind: 12mph
Humidity: 76%   Direction: 310°NW
Pressure: 29.29"   Gusts: 21mph
Location:  59.24°N, 135.45°W
Report Text: PAHN 200254Z AUTO 31010G18KT 10SM OVC080 M01/M04 A2929 RMK AO2 SLP920 T10061044 56023 TSNO
Loading
Personal Weather Stations






























Interactive Weather Map New forecast layout! Learn more

10-Day Weather Forecast

Advertisements
Track Severe Weather on mobile